NKS9400 KPSP-KSEA
Flight info
| Callsign | NKS9400 |
|---|---|
| Flight time | N/A |
| Altitude | 36000 |
| Route | YUCCA1 PMD LANDO TILTS LKV HAWKZ8 |
| Aircraft | A320/M-SDE3FGHIRWY/LB1 |
Departure
| Time | 2026-05-05 02:57 |
|---|---|
| Airport | Palm Springs International Airport (KPSP) |
Arrival
| Time | N/A |
|---|---|
| Airport | Seattle–Tacoma International Airport (KSEA) |
| Time | Latitude | Longitude | Altitude | Speed | Heading |
|---|---|---|---|---|---|
| 2026-05-05 02:44 | 33.82388 | -116.50656 | 427 ft | 0 kts | 194° |
| 2026-05-05 02:45 | 33.82394 | -116.50654 | 415 ft | 2 kts | 194° |
| 2026-05-05 02:45 | 33.82413 | -116.50648 | 417 ft | 3 kts | 194° |
| 2026-05-05 02:45 | 33.82432 | -116.50642 | 421 ft | 3 kts | 195° |
| 2026-05-05 02:46 | 33.82452 | -116.50635 | 419 ft | 3 kts | 194° |
| 2026-05-05 02:46 | 33.82472 | -116.50631 | 417 ft | 3 kts | 180° |
| 2026-05-05 02:46 | 33.82489 | -116.50634 | 421 ft | 2 kts | 144° |
| 2026-05-05 02:46 | 33.82502 | -116.50645 | 419 ft | 1 kts | 143° |
| 2026-05-05 02:47 | 33.82504 | -116.50647 | 419 ft | 0 kts | 143° |
| 2026-05-05 02:50 | 33.82486 | -116.50631 | 421 ft | 7 kts | 143° |
| 2026-05-05 02:50 | 33.82437 | -116.50587 | 425 ft | 10 kts | 143° |
| 2026-05-05 02:50 | 33.82376 | -116.50533 | 418 ft | 12 kts | 143° |
| 2026-05-05 02:50 | 33.82318 | -116.50470 | 422 ft | 10 kts | 116° |
| 2026-05-05 02:51 | 33.82268 | -116.50346 | 411 ft | 17 kts | 140° |
| 2026-05-05 02:51 | 33.82187 | -116.50274 | 410 ft | 18 kts | 144° |
| 2026-05-05 02:51 | 33.82077 | -116.50178 | 412 ft | 21 kts | 143° |
| 2026-05-05 02:51 | 33.81961 | -116.50075 | 414 ft | 21 kts | 143° |
| 2026-05-05 02:52 | 33.81852 | -116.49970 | 410 ft | 19 kts | 124° |
| 2026-05-05 02:52 | 33.81851 | -116.49904 | 412 ft | 0 kts | 86° |
| 2026-05-05 02:55 | 33.81851 | -116.49902 | 412 ft | 1 kts | 86° |
| 2026-05-05 02:55 | 33.81851 | -116.49890 | 412 ft | 1 kts | 86° |
| 2026-05-05 02:56 | 33.81852 | -116.49870 | 412 ft | 4 kts | 86° |
| 2026-05-05 02:56 | 33.81862 | -116.49834 | 409 ft | 6 kts | 59° |
| 2026-05-05 02:56 | 33.81906 | -116.49822 | 411 ft | 9 kts | 339° |
| 2026-05-05 02:56 | 33.81963 | -116.49873 | 405 ft | 17 kts | 322° |
| 2026-05-05 02:57 | 33.82246 | -116.50129 | 412 ft | 83 kts | 322° |
| 2026-05-05 02:57 | 33.82843 | -116.50669 | 432 ft | 129 kts | 323° |
| 2026-05-05 02:57 | 33.83645 | -116.51393 | 692 ft | 148 kts | 321° |
| 2026-05-05 02:57 | 33.84496 | -116.52143 | 1230 ft | 156 kts | 322° |
| 2026-05-05 02:58 | 33.85383 | -116.52965 | 1739 ft | 164 kts | 321° |
| 2026-05-05 02:58 | 33.86290 | -116.53805 | 2416 ft | 167 kts | 320° |
| 2026-05-05 02:58 | 33.87259 | -116.54657 | 2931 ft | 178 kts | 320° |
| 2026-05-05 02:58 | 33.88290 | -116.55529 | 3484 ft | 186 kts | 321° |
| 2026-05-05 02:59 | 33.89417 | -116.56364 | 4081 ft | 193 kts | 327° |
| 2026-05-05 02:59 | 33.90662 | -116.57017 | 4653 ft | 197 kts | 342° |
| 2026-05-05 02:59 | 33.92062 | -116.57193 | 5225 ft | 213 kts | 2° |
| 2026-05-05 02:59 | 33.93488 | -116.56404 | 5615 ft | 245 kts | 37° |
| 2026-05-05 03:00 | 33.94760 | -116.54869 | 5966 ft | 272 kts | 46° |
| 2026-05-05 03:00 | 33.96051 | -116.53101 | 6519 ft | 286 kts | 41° |
| 2026-05-05 03:00 | 33.97685 | -116.51759 | 7173 ft | 286 kts | 17° |
| 2026-05-05 03:00 | 33.99592 | -116.51321 | 7774 ft | 284 kts | 357° |
| 2026-05-05 03:01 | 34.01575 | -116.51459 | 8548 ft | 286 kts | 354° |
| 2026-05-05 03:01 | 34.03594 | -116.51616 | 9322 ft | 290 kts | 355° |
| 2026-05-05 03:01 | 34.05603 | -116.51769 | 9851 ft | 295 kts | 355° |
| 2026-05-05 03:01 | 34.07685 | -116.51919 | 9974 ft | 297 kts | 355° |
| 2026-05-05 03:02 | 34.09806 | -116.52097 | 10018 ft | 324 kts | 351° |
| 2026-05-05 03:02 | 34.12065 | -116.52769 | 10109 ft | 345 kts | 340° |
| 2026-05-05 03:02 | 34.14385 | -116.53694 | 10505 ft | 355 kts | 340° |
| 2026-05-05 03:02 | 34.16748 | -116.54625 | 11070 ft | 360 kts | 340° |
| 2026-05-05 03:03 | 34.19152 | -116.55570 | 11630 ft | 365 kts | 339° |
| 2026-05-05 03:03 | 34.21583 | -116.56521 | 12216 ft | 369 kts | 340° |
| 2026-05-05 03:03 | 34.24042 | -116.57480 | 12844 ft | 372 kts | 339° |
| 2026-05-05 03:03 | 34.26545 | -116.58460 | 13440 ft | 376 kts | 339° |
| 2026-05-05 03:04 | 34.29016 | -116.59432 | 13983 ft | 380 kts | 339° |
| 2026-05-05 03:04 | 34.31536 | -116.60422 | 14466 ft | 383 kts | 339° |
| 2026-05-05 03:04 | 34.34124 | -116.61437 | 14942 ft | 387 kts | 338° |
| 2026-05-05 03:04 | 34.36662 | -116.62434 | 15418 ft | 391 kts | 338° |
| 2026-05-05 03:05 | 34.39267 | -116.63463 | 15912 ft | 394 kts | 338° |
| 2026-05-05 03:05 | 34.41884 | -116.64501 | 16382 ft | 398 kts | 338° |
| 2026-05-05 03:05 | 34.44485 | -116.65690 | 16869 ft | 398 kts | 329° |
| 2026-05-05 03:05 | 34.46796 | -116.67491 | 17352 ft | 395 kts | 315° |
| 2026-05-05 03:06 | 34.48704 | -116.69860 | 17844 ft | 391 kts | 302° |
| 2026-05-05 03:06 | 34.50125 | -116.72645 | 18343 ft | 387 kts | 290° |
| 2026-05-05 03:06 | 34.51008 | -116.75702 | 18842 ft | 383 kts | 278° |
| 2026-05-05 03:06 | 34.51393 | -116.78884 | 19342 ft | 381 kts | 272° |
| 2026-05-05 03:07 | 34.51700 | -116.82069 | 19873 ft | 382 kts | 272° |
| 2026-05-05 03:07 | 34.52008 | -116.85278 | 20381 ft | 383 kts | 272° |
| 2026-05-05 03:07 | 34.52315 | -116.88488 | 20890 ft | 384 kts | 272° |
| 2026-05-05 03:07 | 34.52628 | -116.91764 | 21343 ft | 386 kts | 272° |
| 2026-05-05 03:08 | 34.52933 | -116.94967 | 21785 ft | 388 kts | 272° |
| 2026-05-05 03:08 | 34.53244 | -116.98223 | 22233 ft | 390 kts | 272° |
| 2026-05-05 03:08 | 34.53560 | -117.01492 | 22718 ft | 391 kts | 272° |
| 2026-05-05 03:08 | 34.53881 | -117.04811 | 23156 ft | 392 kts | 272° |
| 2026-05-05 03:09 | 34.54196 | -117.08110 | 23589 ft | 394 kts | 272° |
| 2026-05-05 03:09 | 34.54506 | -117.11362 | 23949 ft | 395 kts | 272° |
| 2026-05-05 03:09 | 34.54823 | -117.14722 | 24329 ft | 396 kts | 271° |
| 2026-05-05 03:09 | 34.55134 | -117.18034 | 24711 ft | 396 kts | 271° |
| 2026-05-05 03:10 | 34.55446 | -117.21358 | 25121 ft | 397 kts | 271° |
| 2026-05-05 03:10 | 34.55761 | -117.24694 | 25465 ft | 398 kts | 271° |
| 2026-05-05 03:10 | 34.56076 | -117.28043 | 25823 ft | 400 kts | 271° |
| 2026-05-05 03:10 | 34.56390 | -117.31397 | 26141 ft | 402 kts | 270° |
| 2026-05-05 03:11 | 34.56705 | -117.34782 | 26395 ft | 405 kts | 270° |
| 2026-05-05 03:11 | 34.57022 | -117.38191 | 26702 ft | 407 kts | 270° |
| 2026-05-05 03:11 | 34.57339 | -117.41604 | 27099 ft | 407 kts | 270° |
| 2026-05-05 03:11 | 34.57403 | -117.44986 | 27564 ft | 395 kts | 258° |
| 2026-05-05 03:12 | 34.56727 | -117.48159 | 28080 ft | 384 kts | 243° |
| 2026-05-05 03:12 | 34.55383 | -117.50904 | 28597 ft | 377 kts | 230° |
| 2026-05-05 03:12 | 34.53486 | -117.53074 | 29121 ft | 374 kts | 216° |
| 2026-05-05 03:12 | 34.51182 | -117.54525 | 29658 ft | 376 kts | 203° |
| 2026-05-05 03:13 | 34.48604 | -117.55170 | 30180 ft | 383 kts | 189° |
| 2026-05-05 03:13 | 34.45914 | -117.54924 | 30605 ft | 395 kts | 175° |
| 2026-05-05 03:13 | 34.44131 | -117.54227 | 30846 ft | 406 kts | 167° |
| 2026-05-05 03:13 | 34.41527 | -117.52868 | 31259 ft | 405 kts | 167° |
| 2026-05-05 03:14 | 34.39544 | -117.51815 | 31563 ft | 404 kts | 167° |